Ooltewah, TN (37363)

4:09 AM EST on March 04, 2015 (GMT -0500)
Island Point | Change Station
CLOSE
Current Station
Personal Weather Station
Location: Harrison, TN
Elevation: 700 ft
Nearby Weather Stations
Active Advisory: Winter Storm Watch

Elev 700 ft 35.16 °N, 85.07 °W | Updated 1 second ago

Rain
Rain
55.3 °F
Feels Like 55.3 °F
N
2.0
Wind Variable Wind from SSW
Gusts 7.0 mph

Today
High -- | Low -- °F
--% Chance of Precip.
Yesterday
High -- | Low -- °F
Precip. -- in
7:06 AM 6:38 PM
Waxing Gibbous, 98% visible
Pressure 29.95 in
Visibility 4.0 miles
Clouds Overcast 500 ft
Dew Point 54 °F
Humidity 97%
Rainfall 0.07 in
Snow Depth Not available.
UV 0 out of 12
Pollen .70 out of 12
Air Quality Not available.
Flu Activity Not available.
METAR KCHA 040853Z AUTO 17004KT 4SM -RA BR OVC005 14/13 A2995 RMK AO2 RAB08 SLP140 P0002 60003 T01390133 58014

More Conditions Fewer Conditions

Pressure 29.95 in
Visibility 4.0 miles
Clouds Overcast 500 ft
Dew Point 54 °F
Humidity 97%
Rainfall 0.07 in
Snow Depth Not available.
UV 0 out of 12
Pollen .70 out of 12
Air Quality Not available.
Flu Activity Not available.
METAR KCHA 040853Z AUTO 17004KT 4SM -RA BR OVC005 14/13 A2995 RMK AO2 RAB08 SLP140 P0002 60003 T01390133 58014

More Conditions Fewer Conditions

10-Day Weather Forecast

Almanac

Astronomy

Mar. 04, 2015 Rise Set
Actual Time
Civil Twilight
Nautical Twilight
Astronomical Twilight
Moon
Length of Visible Light
Length of Day
Tomorrow will be .
, % of the Moon is Illuminated

Today's Extremes

State Highs State Lows

Community

WunderPhotos

Upload Photos

1,802,418 photos uploaded!

WunderBlogs® & News

Nearby

Air Quality

  Air Quality AQ Index Pollutant
Not available.

Snow Depth

Station Depth Elevation

Earthquake Activity

City Distance Mag. Time & Date
Minimum magnitude displayed is 2.5.

Coastal Water Temperatures

Place Temperature

Nearby Weather Stations

Winter Storm Watch
Statement as of 3:30 AM EST on March 04, 2015

... Winter Storm Watch remains in effect from late tonight through
Thursday afternoon...

* event... wintry mix of freezing rain changing to sleet and snow.

* Timing... beginning around midnight Wednesday night and
continuing until 4 PM EST Thursday afternoon.

* Impacts... freezing rain accumulations a quarter of an inch or
less... changing over to sleet and snow with accumulations
generally 2 inches or less.

Precautionary/preparedness actions...

A Winter Storm Watch means there is a potential for significant
snow... sleet... and/or ice accumulations. Future driving
conditions may become hazardous... so continue to monitor the
latest forecasts.